Time;durP1;ratioP1;P1;durP2;ratioP2;P2;SDS_P1;SDS_P2;PMS_P1;PMS_P2;Temp;Humidity;BMP_temperature;BMP_pressure;BME280_temperature;BME280_humidity;BME280_pressure;Samples;Min_cycle;Max_cycle;Signal;HPM_P1;HPM_P2
2023/05/09 00:02:27;;;;;;;;;;;;;;;;;;5092316;27;19923;-66
2023/05/09 00:04:53;;;;;;;;;;;;;;;;;;5091027;28;20390;-66
2023/05/09 00:09:06;;;;;;;;;;;;;;;;;;5174227;27;19921;-67
2023/05/09 00:13:31;;;;;;;;;;;;;;;;;;5045839;27;2423021;-67
2023/05/09 00:25:40;;;;;;;;;;;;;;;;;;5111804;27;19996;-66
2023/05/09 00:33:05;;;;;;;;;;;;;;;;;;5111967;27;19938;-67
2023/05/09 00:37:50;;;;;;;;;;;;;;;;;;5112344;27;19923;-66
2023/05/09 00:42:42;;;;;;;;;;;;;;;;;;5091827;28;20269;-67
2023/05/09 00:45:08;;;;;;;;;;;;;;;;;;5090127;28;19997;-67
2023/05/09 00:49:32;;;;;;;;;;;;;;;;;;5111956;27;19916;-68
2023/05/09 00:51:58;;;;;;;;;;;;;;;;;;5110504;28;20351;-67
2023/05/09 00:54:24;;;;;;;;;;;;;;;;;;5111308;28;19995;-67
2023/05/09 00:57:01;;;;;;;;;;;;;;;;;;5071235;28;19923;-66
2023/05/09 00:59:28;;;;;;;;;;;;;;;;;;5069963;28;20007;-65
2023/05/09 01:04:35;;;;;;;;;;;;;;;;;;5153082;27;19998;-66
2023/05/09 01:08:55;;;;;;;;;;;;;;;;;;5111430;27;19912;-65
2023/05/09 01:11:21;;;;;;;;;;;;;;;;;;5111806;28;20002;-67
2023/05/09 01:13:47;;;;;;;;;;;;;;;;;;5111681;28;20360;-65
2023/05/09 01:16:14;;;;;;;;;;;;;;;;;;5111421;28;19912;-66
2023/05/09 01:18:40;;;;;;;;;;;;;;;;;;5111643;28;20315;-66
2023/05/09 01:21:07;;;;;;;;;;;;;;;;;;5111554;28;19908;-66
2023/05/09 01:29:58;;;;;;;;;;;;;;;;;;5111953;27;19916;-65
2023/05/09 01:32:24;;;;;;;;;;;;;;;;;;5110791;28;20002;-65
2023/05/09 01:37:27;;;;;;;;;;;;;;;;;;5173633;27;19918;-67
2023/05/09 01:40:28;;;;;;;;;;;;;;;;;;5111996;27;20306;-67
2023/05/09 01:42:53;;;;;;;;;;;;;;;;;;5111767;28;20006;-67
2023/05/09 01:45:19;;;;;;;;;;;;;;;;;;5111350;28;20348;-67
2023/05/09 01:47:45;;;;;;;;;;;;;;;;;;5112267;28;20351;-68
2023/05/09 01:50:11;;;;;;;;;;;;;;;;;;5111560;28;19908;-67
2023/05/09 01:52:37;;;;;;;;;;;;;;;;;;5110630;28;19974;-67
2023/05/09 01:56:43;;;;;;;;;;;;;;;;;;5174425;27;19915;-65
2023/05/09 01:59:14;;;;;;;;;;;;;;;;;;5173398;27;19918;-65
2023/05/09 02:01:40;;;;;;;;;;;;;;;;;;5155112;27;20393;-65
2023/05/09 02:04:06;;;;;;;;;;;;;;;;;;5173632;27;19907;-66
2023/05/09 02:06:32;;;;;;;;;;;;;;;;;;5173273;27;19907;-65
2023/05/09 02:08:58;;;;;;;;;;;;;;;;;;5173860;27;19906;-65
2023/05/09 02:11:24;;;;;;;;;;;;;;;;;;5173124;27;20333;-65
2023/05/09 02:14:00;;;;;;;;;;;;;;;;;;5111826;27;19923;-66
2023/05/09 02:16:26;;;;;;;;;;;;;;;;;;5111747;28;20006;-66
2023/05/09 02:18:52;;;;;;;;;;;;;;;;;;5111427;28;20374;-66
2023/05/09 02:24:08;;;;;;;;;;;;;;;;;;5112540;27;19923;-65
2023/05/09 02:26:34;;;;;;;;;;;;;;;;;;5110131;28;19912;-66
2023/05/09 02:29:00;;;;;;;;;;;;;;;;;;5111729;28;19961;-65
2023/05/09 02:31:26;;;;;;;;;;;;;;;;;;5110441;28;19908;-65
2023/05/09 02:36:41;;;;;;;;;;;;;;;;;;5098527;27;2142219;-66
2023/05/09 02:40:58;;;;;;;;;;;;;;;;;;5111441;27;19915;-66
2023/05/09 02:43:24;;;;;;;;;;;;;;;;;;5111741;28;20011;-66
2023/05/09 02:45:50;;;;;;;;;;;;;;;;;;5111673;28;19908;-66
2023/05/09 02:48:16;;;;;;;;;;;;;;;;;;5110027;28;19951;-66
2023/05/09 02:50:42;;;;;;;;;;;;;;;;;;5111948;28;19908;-66
2023/05/09 02:56:26;;;;;;;;;;;;;;;;;;5174076;27;19911;-68
2023/05/09 02:58:51;;;;;;;;;;;;;;;;;;5155152;27;20385;-67
2023/05/09 03:03:40;;;;;;;;;;;;;;;;;;5112317;27;20294;-67
2023/05/09 03:06:06;;;;;;;;;;;;;;;;;;5111880;28;20003;-67
2023/05/09 03:11:09;;;;;;;;;;;;;;;;;;5111856;27;19916;-67
2023/05/09 03:16:28;;;;;;;;;;;;;;;;;;5111485;27;19938;-67
2023/05/09 03:18:54;;;;;;;;;;;;;;;;;;5111969;28;20439;-67
2023/05/09 03:21:20;;;;;;;;;;;;;;;;;;5110378;28;20329;-67
2023/05/09 03:23:46;;;;;;;;;;;;;;;;;;5111380;28;19908;-67
2023/05/09 03:28:47;;;;;;;;;;;;;;;;;;5091140;27;19916;-65
2023/05/09 03:31:13;;;;;;;;;;;;;;;;;;5091401;28;19944;-66
2023/05/09 03:34:22;;;;;;;;;;;;;;;;;;5112123;27;19916;-67
2023/05/09 03:36:48;;;;;;;;;;;;;;;;;;5111416;28;20282;-67
2023/05/09 03:39:14;;;;;;;;;;;;;;;;;;5111733;28;19954;-67
2023/05/09 03:41:40;;;;;;;;;;;;;;;;;;5111764;28;19969;-67
2023/05/09 03:44:06;;;;;;;;;;;;;;;;;;5111223;28;19954;-67
2023/05/09 03:46:32;;;;;;;;;;;;;;;;;;5111818;28;20363;-67
2023/05/09 03:49:28;;;;;;;;;;;;;;;;;;5174137;27;20281;-65
2023/05/09 03:51:54;;;;;;;;;;;;;;;;;;5173475;27;19915;-65
2023/05/09 03:54:20;;;;;;;;;;;;;;;;;;5173766;27;20322;-65
2023/05/09 03:57:57;;;;;;;;;;;;;;;;;;5132287;27;20286;-67
2023/05/09 04:00:23;;;;;;;;;;;;;;;;;;5132835;28;20003;-67
2023/05/09 04:02:49;;;;;;;;;;;;;;;;;;5132719;28;20363;-67
2023/05/09 04:05:15;;;;;;;;;;;;;;;;;;5113431;28;19957;-67
2023/05/09 04:07:41;;;;;;;;;;;;;;;;;;5132199;28;19908;-67
2023/05/09 04:10:07;;;;;;;;;;;;;;;;;;5131985;28;19954;-66
2023/05/09 04:12:33;;;;;;;;;;;;;;;;;;5131738;28;19946;-66
2023/05/09 04:18:22;;;;;;;;;;;;;;;;;;5111597;27;19912;-66
2023/05/09 04:20:48;;;;;;;;;;;;;;;;;;5111761;28;20007;-65
2023/05/09 04:23:14;;;;;;;;;;;;;;;;;;5111676;28;19952;-66
2023/05/09 04:25:39;;;;;;;;;;;;;;;;;;5111268;28;19912;-66
2023/05/09 04:28:05;;;;;;;;;;;;;;;;;;5110235;28;19944;-65
2023/05/09 04:30:31;;;;;;;;;;;;;;;;;;5111340;28;20317;-67
2023/05/09 04:35:05;;;;;;;;;;;;;;;;;;5110932;27;19917;-66
2023/05/09 04:37:31;;;;;;;;;;;;;;;;;;5111688;28;19919;-67
2023/05/09 04:39:57;;;;;;;;;;;;;;;;;;5111343;28;19908;-67
2023/05/09 04:43:37;;;;;;;;;;;;;;;;;;5090787;27;20295;-67
2023/05/09 04:46:03;;;;;;;;;;;;;;;;;;5089618;28;20002;-67
2023/05/09 04:48:29;;;;;;;;;;;;;;;;;;5090315;28;19936;-68
2023/05/09 04:51:36;;;;;;;;;;;;;;;;;;5089702;27;20291;-67
2023/05/09 04:54:02;;;;;;;;;;;;;;;;;;5087657;28;19999;-66
2023/05/09 04:56:28;;;;;;;;;;;;;;;;;;5088218;28;20003;-67
2023/05/09 05:01:29;;;;;;;;;;;;;;;;;;5109295;27;19922;-65
2023/05/09 05:03:55;;;;;;;;;;;;;;;;;;5109767;28;19946;-67
2023/05/09 05:06:21;;;;;;;;;;;;;;;;;;5109597;28;20390;-66
2023/05/09 05:08:47;;;;;;;;;;;;;;;;;;5109133;28;19908;-65
2023/05/09 05:11:48;;;;;;;;;;;;;;;;;;5109404;27;20303;-65
2023/05/09 05:14:14;;;;;;;;;;;;;;;;;;5107856;28;19995;-67
2023/05/09 05:20:20;;;;;;;;;;;;;;;;;;5087586;27;19913;-68
2023/05/09 05:22:45;;;;;;;;;;;;;;;;;;5086476;28;20386;-63
2023/05/09 05:25:12;;;;;;;;;;;;;;;;;;5086229;28;20007;-64
2023/05/09 05:27:38;;;;;;;;;;;;;;;;;;5081761;28;20388;-62
2023/05/09 05:30:04;;;;;;;;;;;;;;;;;;5086190;28;19970;-61
2023/05/09 05:35:47;;;;;;;;;;;;;;;;;;5093871;27;19920;-62
2023/05/09 05:40:04;;;;;;;;;;;;;;;;;;5077970;27;19920;-62
2023/05/09 05:42:30;;;;;;;;;;;;;;;;;;5066103;28;20506;-62
2023/05/09 05:50:46;;;;;;;;;;;;;;;;;;5106709;27;19938;-62
2023/05/09 05:53:12;;;;;;;;;;;;;;;;;;5106208;28;20379;-65
2023/05/09 05:55:38;;;;;;;;;;;;;;;;;;5105218;28;19908;-65
2023/05/09 05:58:04;;;;;;;;;;;;;;;;;;5100502;28;19948;-65
2023/05/09 06:00:30;;;;;;;;;;;;;;;;;;5103186;28;19958;-64
2023/05/09 06:02:56;;;;;;;;;;;;;;;;;;5101955;28;19912;-65
2023/05/09 06:06:20;;;;;;;;;;;;;;;;;;5107613;27;19944;-64
2023/05/09 06:09:37;;;;;;;;;;;;;;;;;;5104424;27;19917;-65
2023/05/09 06:12:03;;;;;;;;;;;;;;;;;;5106997;28;20371;-65
2023/05/09 06:16:24;;;;;;;;;;;;;;;;;;5087269;27;19919;-65
2023/05/09 06:20:04;;;;;;;;;;;;;;;;;;5149107;27;19927;-64
2023/05/09 06:22:30;;;;;;;;;;;;;;;;;;5143907;27;20397;-67
2023/05/09 06:24:56;;;;;;;;;;;;;;;;;;5137961;27;19912;-65
2023/05/09 06:27:22;;;;;;;;;;;;;;;;;;5148758;27;19917;-64
2023/05/09 06:29:48;;;;;;;;;;;;;;;;;;5108896;28;19912;-65
2023/05/09 06:34:32;;;;;;;;;;;;;;;;;;5106011;27;20413;-66
2023/05/09 06:36:58;;;;;;;;;;;;;;;;;;5097528;28;19944;-65
2023/05/09 06:39:36;;;;;;;;;;;;;;;;;;5082797;27;19920;-65
2023/05/09 06:42:02;;;;;;;;;;;;;;;;;;5086815;28;19916;-66
2023/05/09 06:46:26;;;;;;;;;;;;;;;;;;5107655;27;19912;-66
2023/05/09 06:48:52;;;;;;;;;;;;;;;;;;5108666;28;19922;-65
2023/05/09 06:51:18;;;;;;;;;;;;;;;;;;5109838;28;19916;-65
2023/05/09 06:53:44;;;;;;;;;;;;;;;;;;5109582;28;19987;-65
2023/05/09 06:56:24;;;;;;;;;;;;;;;;;;5097170;27;19920;-66
2023/05/09 06:58:50;;;;;;;;;;;;;;;;;;5088930;28;19916;-64
2023/05/09 07:05:18;;;;;;;;;;;;;;;;;;5107294;27;19916;-65
2023/05/09 07:07:44;;;;;;;;;;;;;;;;;;5107009;28;19912;-65
2023/05/09 07:10:10;;;;;;;;;;;;;;;;;;5100737;28;19943;-66
2023/05/09 07:12:36;;;;;;;;;;;;;;;;;;5104173;28;20326;-66
2023/05/09 07:15:02;;;;;;;;;;;;;;;;;;5101851;28;19961;-65
2023/05/09 07:17:29;;;;;;;;;;;;;;;;;;5107923;28;20424;-65
2023/05/09 07:19:55;;;;;;;;;;;;;;;;;;5107479;28;19915;-65
2023/05/09 07:24:45;;;;;;;;;;;;;;;;;;5124770;27;20583;-64
2023/05/09 07:28:18;;;;;;;;;;;;;;;;;;5112007;27;19920;-65
2023/05/09 07:30:44;;;;;;;;;;;;;;;;;;5100879;28;19916;-65
2023/05/09 07:33:10;;;;;;;;;;;;;;;;;;5084560;28;19963;-65
2023/05/09 07:35:36;;;;;;;;;;;;;;;;;;5085910;28;19919;-66
2023/05/09 07:40:59;;;;;;;;;;;;;;;;;;5105493;27;19920;-65
2023/05/09 07:43:25;;;;;;;;;;;;;;;;;;5085456;28;19920;-64
2023/05/09 07:45:51;;;;;;;;;;;;;;;;;;5085016;28;20427;-66
2023/05/09 07:48:17;;;;;;;;;;;;;;;;;;5102913;28;20447;-68
2023/05/09 07:50:43;;;;;;;;;;;;;;;;;;5090013;28;19913;-66
2023/05/09 07:53:09;;;;;;;;;;;;;;;;;;5083524;28;19916;-67
2023/05/09 07:55:35;;;;;;;;;;;;;;;;;;5084286;28;19913;-66
2023/05/09 07:58:47;;;;;;;;;;;;;;;;;;5106235;27;20193;-67
2023/05/09 08:01:13;;;;;;;;;;;;;;;;;;5091365;28;19920;-67
2023/05/09 08:03:39;;;;;;;;;;;;;;;;;;5091666;28;19912;-66
2023/05/09 08:06:05;;;;;;;;;;;;;;;;;;5092656;28;20000;-67
2023/05/09 08:09:36;;;;;;;;;;;;;;;;;;5141773;27;19922;-66
2023/05/09 08:14:33;;;;;;;;;;;;;;;;;;5147449;27;20010;-65
2023/05/09 08:17:22;;;;;;;;;;;;;;;;;;5104292;27;19916;-67
2023/05/09 08:19:48;;;;;;;;;;;;;;;;;;5100515;28;20346;-65
2023/05/09 08:22:14;;;;;;;;;;;;;;;;;;5106427;28;19996;-61
2023/05/09 08:25:20;;;;;;;;;;;;;;;;;;5116247;27;19927;-63
2023/05/09 08:28:00;;;;;;;;;;;;;;;;;;5143567;27;20356;-61
2023/05/09 08:30:28;;;;;;;;;;;;;;;;;;5102360;28;19919;-61
2023/05/09 08:33:40;;;;;;;;;;;;;;;;;;5131008;27;19920;-62
2023/05/09 08:36:06;;;;;;;;;;;;;;;;;;5121902;27;20535;-62
2023/05/09 08:41:18;;;;;;;;;;;;;;;;;;5144107;27;20379;-67
2023/05/09 08:43:44;;;;;;;;;;;;;;;;;;5124221;27;19922;-66
2023/05/09 08:46:11;;;;;;;;;;;;;;;;;;5140831;27;20012;-65
2023/05/09 08:48:37;;;;;;;;;;;;;;;;;;5137967;27;19953;-65
2023/05/09 08:51:21;;;;;;;;;;;;;;;;;;5085832;27;19916;-66
2023/05/09 08:53:47;;;;;;;;;;;;;;;;;;5086078;28;19918;-66
2023/05/09 08:58:28;;;;;;;;;;;;;;;;;;5104396;27;20364;-66
2023/05/09 09:00:54;;;;;;;;;;;;;;;;;;5104345;28;20283;-66
2023/05/09 09:04:12;;;;;;;;;;;;;;;;;;5084428;28;19919;-64
2023/05/09 09:06:38;;;;;;;;;;;;;;;;;;5083347;28;19916;-65
2023/05/09 09:10:24;;;;;;;;;;;;;;;;;;5085687;28;19916;-67
2023/05/09 09:15:16;;;;;;;;;;;;;;;;;;5148327;27;19911;-66
2023/05/09 09:19:47;;;;;;;;;;;;;;;;;;5106088;27;20428;-64
2023/05/09 09:22:35;;;;;;;;;;;;;;;;;;5106617;27;19919;-65
2023/05/09 09:25:01;;;;;;;;;;;;;;;;;;5107041;28;19912;-67
2023/05/09 09:27:27;;;;;;;;;;;;;;;;;;5097838;28;19912;-65
2023/05/09 09:29:53;;;;;;;;;;;;;;;;;;5103943;28;19954;-65
2023/05/09 09:32:21;;;;;;;;;;;;;;;;;;5101698;28;19948;-65
2023/05/09 09:34:47;;;;;;;;;;;;;;;;;;5104689;28;19912;-66
2023/05/09 09:37:13;;;;;;;;;;;;;;;;;;5117161;28;20055;-65
2023/05/09 09:42:28;;;;;;;;;;;;;;;;;;5145817;27;20430;-66
2023/05/09 09:46:12;;;;;;;;;;;;;;;;;;5083685;27;19921;-66
2023/05/09 09:52:09;;;;;;;;;;;;;;;;;;5141542;27;19930;-66
2023/05/09 09:55:17;;;;;;;;;;;;;;;;;;5148001;27;19918;-65
2023/05/09 10:00:02;;;;;;;;;;;;;;;;;;5139057;27;19969;-65
2023/05/09 10:06:25;;;;;;;;;;;;;;;;;;5089076;27;19919;-65
2023/05/09 10:08:51;;;;;;;;;;;;;;;;;;5090990;28;20347;-66
2023/05/09 10:11:28;;;;;;;;;;;;;;;;;;5150366;27;19916;-67
2023/05/09 10:13:54;;;;;;;;;;;;;;;;;;5151749;27;19911;-66
2023/05/09 10:18:20;;;;;;;;;;;;;;;;;;5151397;27;20002;-66
2023/05/09 10:20:46;;;;;;;;;;;;;;;;;;5150931;27;19922;-65
2023/05/09 10:25:01;;;;;;;;;;;;;;;;;;5151772;27;19915;-66
2023/05/09 10:27:27;;;;;;;;;;;;;;;;;;5151833;27;19911;-65
2023/05/09 10:38:28;;;;;;;;;;;;;;;;;;5086894;27;19918;-66
2023/05/09 10:43:30;;;;;;;;;;;;;;;;;;5150293;27;19911;-66
2023/05/09 10:45:56;;;;;;;;;;;;;;;;;;5150249;27;19953;-66
2023/05/09 10:48:38;;;;;;;;;;;;;;;;;;5089819;27;20283;-65
2023/05/09 10:51:04;;;;;;;;;;;;;;;;;;5087506;28;20015;-65
2023/05/09 10:57:59;;;;;;;;;;;;;;;;;;5103250;27;19916;-65
2023/05/09 11:00:25;;;;;;;;;;;;;;;;;;5088729;28;19913;-66
2023/05/09 11:02:51;;;;;;;;;;;;;;;;;;5088574;28;19970;-65
2023/05/09 11:08:46;;;;;;;;;;;;;;;;;;5150043;27;19918;-65
2023/05/09 11:11:12;;;;;;;;;;;;;;;;;;5118287;28;20266;-65
2023/05/09 11:13:38;;;;;;;;;;;;;;;;;;5109288;28;19908;-65
2023/05/09 11:16:31;;;;;;;;;;;;;;;;;;5091586;27;19917;-65
2023/05/09 11:20:50;;;;;;;;;;;;;;;;;;5120433;27;19916;-63
2023/05/09 11:23:16;;;;;;;;;;;;;;;;;;5128959;27;19984;-64
2023/05/09 11:27:55;;;;;;;;;;;;;;;;;;5109394;27;19916;-64
2023/05/09 11:30:21;;;;;;;;;;;;;;;;;;5109851;28;19918;-64
2023/05/09 11:33:20;;;;;;;;;;;;;;;;;;5152184;27;20283;-64
2023/05/09 11:41:51;;;;;;;;;;;;;;;;;;5110533;27;19920;-66
2023/05/09 11:46:45;;;;;;;;;;;;;;;;;;5131909;27;20010;-66
2023/05/09 11:50:50;;;;;;;;;;;;;;;;;;5056377;27;2099226;-66
2023/05/09 11:57:54;;;;;;;;;;;;;;;;;;5108301;27;19920;-65
2023/05/09 12:02:06;;;;;;;;;;;;;;;;;;5069566;27;20376;-66
2023/05/09 12:11:23;;;;;;;;;;;;;;;;;;5101316;27;19920;-67
2023/05/09 12:16:02;;;;;;;;;;;;;;;;;;5151698;27;19923;-66
2023/05/09 12:20:33;;;;;;;;;;;;;;;;;;5090320;27;19918;-64
2023/05/09 12:22:59;;;;;;;;;;;;;;;;;;5088082;28;20006;-66
2023/05/09 12:27:31;;;;;;;;;;;;;;;;;;5089838;27;19920;-64
2023/05/09 12:29:57;;;;;;;;;;;;;;;;;;5089967;28;19912;-65
2023/05/09 12:35:03;;;;;;;;;;;;;;;;;;5131257;27;19972;-65
2023/05/09 12:37:29;;;;;;;;;;;;;;;;;;5130942;28;19924;-66
2023/05/09 12:41:17;;;;;;;;;;;;;;;;;;5090741;27;20259;-65
2023/05/09 12:43:43;;;;;;;;;;;;;;;;;;5091038;28;19932;-66
2023/05/09 12:46:09;;;;;;;;;;;;;;;;;;5088998;28;19908;-70
2023/05/09 12:50:37;;;;;;;;;;;;;;;;;;5088887;27;19923;-66
2023/05/09 12:53:03;;;;;;;;;;;;;;;;;;5087731;28;19916;-66
2023/05/09 12:58:58;;;;;;;;;;;;;;;;;;5089005;27;19912;-67
2023/05/09 13:03:29;;;;;;;;;;;;;;;;;;5109509;27;19912;-66
2023/05/09 13:07:24;;;;;;;;;;;;;;;;;;5142260;27;20306;-66
2023/05/09 13:11:07;;;;;;;;;;;;;;;;;;5089769;27;19923;-66
2023/05/09 13:14:22;;;;;;;;;;;;;;;;;;5090331;27;19916;-66
2023/05/09 13:16:48;;;;;;;;;;;;;;;;;;5091038;28;19926;-66
2023/05/09 13:19:14;;;;;;;;;;;;;;;;;;5091371;28;19912;-66
2023/05/09 13:23:06;;;;;;;;;;;;;;;;;;5112314;27;19916;-67
2023/05/09 13:25:32;;;;;;;;;;;;;;;;;;5110753;28;19912;-67
2023/05/09 13:27:58;;;;;;;;;;;;;;;;;;5111424;28;20368;-67
2023/05/09 13:30:24;;;;;;;;;;;;;;;;;;5111573;28;19951;-67
2023/05/09 13:32:50;;;;;;;;;;;;;;;;;;5111591;28;19954;-67
2023/05/09 13:35:52;;;;;;;;;;;;;;;;;;5174214;27;20005;-66
2023/05/09 13:38:18;;;;;;;;;;;;;;;;;;5173805;27;19981;-66
2023/05/09 13:40:44;;;;;;;;;;;;;;;;;;5173277;27;19907;-66
2023/05/09 13:44:50;;;;;;;;;;;;;;;;;;5112066;27;19938;-65
2023/05/09 13:47:15;;;;;;;;;;;;;;;;;;5110480;28;20430;-67
2023/05/09 13:52:20;;;;;;;;;;;;;;;;;;5112222;27;19916;-67
2023/05/09 13:57:06;;;;;;;;;;;;;;;;;;5112053;27;19922;-67
2023/05/09 13:59:32;;;;;;;;;;;;;;;;;;5094386;28;19959;-66
2023/05/09 14:06:46;;;;;;;;;;;;;;;;;;5111215;27;19922;-67
2023/05/09 14:10:57;;;;;;;;;;;;;;;;;;5112085;27;19916;-67
2023/05/09 14:14:27;;;;;;;;;;;;;;;;;;5112238;27;19922;-66
2023/05/09 14:16:52;;;;;;;;;;;;;;;;;;5110036;28;19912;-66
2023/05/09 14:19:18;;;;;;;;;;;;;;;;;;5111604;28;19908;-66
2023/05/09 14:23:06;;;;;;;;;;;;;;;;;;5152091;27;19922;-65
2023/05/09 14:26:49;;;;;;;;;;;;;;;;;;5132443;27;19999;-67
2023/05/09 14:30:35;;;;;;;;;;;;;;;;;;5111373;27;19912;-65
2023/05/09 14:33:50;;;;;;;;;;;;;;;;;;5111779;27;19912;-67
2023/05/09 14:36:17;;;;;;;;;;;;;;;;;;5110380;28;19919;-68
2023/05/09 14:38:45;;;;;;;;;;;;;;;;;;5111305;28;19923;-67
2023/05/09 14:45:42;;;;;;;;;;;;;;;;;;5090799;27;19916;-67
2023/05/09 14:48:08;;;;;;;;;;;;;;;;;;5091342;28;20030;-67
2023/05/09 14:50:34;;;;;;;;;;;;;;;;;;5091316;28;19909;-67
2023/05/09 14:53:28;;;;;;;;;;;;;;;;;;5091136;27;19918;-65
2023/05/09 14:55:54;;;;;;;;;;;;;;;;;;5089853;28;19936;-67
2023/05/09 14:58:20;;;;;;;;;;;;;;;;;;5090859;28;19908;-66
2023/05/09 15:00:46;;;;;;;;;;;;;;;;;;5089128;28;19915;-66
2023/05/09 15:03:12;;;;;;;;;;;;;;;;;;5088421;28;20404;-66
2023/05/09 15:05:38;;;;;;;;;;;;;;;;;;5089481;28;19913;-67
2023/05/09 15:08:27;;;;;;;;;;;;;;;;;;5071623;28;20291;-67
2023/05/09 15:10:53;;;;;;;;;;;;;;;;;;5068786;28;19913;-67
2023/05/09 15:13:19;;;;;;;;;;;;;;;;;;5070656;28;19932;-67
2023/05/09 15:15:46;;;;;;;;;;;;;;;;;;5071099;28;19912;-67
2023/05/09 15:18:14;;;;;;;;;;;;;;;;;;5064240;28;20404;-67
2023/05/09 15:20:40;;;;;;;;;;;;;;;;;;5050575;28;19916;-67
2023/05/09 15:23:32;;;;;;;;;;;;;;;;;;5112168;27;19922;-67
2023/05/09 15:25:59;;;;;;;;;;;;;;;;;;5111314;28;20006;-67
2023/05/09 15:28:25;;;;;;;;;;;;;;;;;;5101510;28;20329;-67
2023/05/09 15:30:51;;;;;;;;;;;;;;;;;;5091106;28;20007;-67
2023/05/09 15:37:37;;;;;;;;;;;;;;;;;;5151821;27;19917;-67
2023/05/09 15:40:03;;;;;;;;;;;;;;;;;;5133979;27;20002;-67
2023/05/09 15:42:30;;;;;;;;;;;;;;;;;;5153032;27;20363;-67
2023/05/09 15:45:45;;;;;;;;;;;;;;;;;;5111912;27;20308;-68
2023/05/09 15:48:11;;;;;;;;;;;;;;;;;;5110417;28;19933;-67
2023/05/09 15:55:14;;;;;;;;;;;;;;;;;;5133681;27;19916;-67
2023/05/09 15:58:09;;;;;;;;;;;;;;;;;;5089935;28;19923;-66
2023/05/09 16:04:35;;;;;;;;;;;;;;;;;;5153545;27;19911;-67
2023/05/09 16:07:02;;;;;;;;;;;;;;;;;;5152850;27;19911;-68
2023/05/09 16:09:28;;;;;;;;;;;;;;;;;;5133879;27;19913;-65
2023/05/09 16:11:55;;;;;;;;;;;;;;;;;;5152833;27;19911;-66
2023/05/09 16:14:21;;;;;;;;;;;;;;;;;;5152753;27;19911;-66
2023/05/09 16:16:49;;;;;;;;;;;;;;;;;;5152284;27;19907;-67
2023/05/09 16:19:15;;;;;;;;;;;;;;;;;;5152648;27;19907;-67
2023/05/09 16:21:41;;;;;;;;;;;;;;;;;;5152789;27;20363;-67
2023/05/09 16:24:07;;;;;;;;;;;;;;;;;;5152643;27;20363;-67
2023/05/09 16:28:44;;;;;;;;;;;;;;;;;;5111815;27;19916;-67
2023/05/09 16:31:10;;;;;;;;;;;;;;;;;;5110115;28;20320;-67
2023/05/09 16:33:50;;;;;;;;;;;;;;;;;;5111912;27;20376;-66
2023/05/09 16:36:16;;;;;;;;;;;;;;;;;;5111759;28;20007;-67
2023/05/09 16:49:40;;;;;;;;;;;;;;;;;;5092290;27;19916;-67
2023/05/09 16:53:25;;;;;;;;;;;;;;;;;;5153203;27;20386;-67
2023/05/09 16:57:32;;;;;;;;;;;;;;;;;;5112004;27;19916;-66
2023/05/09 17:00:21;;;;;;;;;;;;;;;;;;5091867;27;19923;-67
2023/05/09 17:02:47;;;;;;;;;;;;;;;;;;5091612;28;19951;-66
2023/05/09 17:07:34;;;;;;;;;;;;;;;;;;5111774;27;20269;-67
2023/05/09 17:10:00;;;;;;;;;;;;;;;;;;5111605;28;20007;-66
2023/05/09 17:12:26;;;;;;;;;;;;;;;;;;5111211;28;19969;-67
2023/05/09 17:14:52;;;;;;;;;;;;;;;;;;5111489;28;19961;-67
2023/05/09 17:17:18;;;;;;;;;;;;;;;;;;5111578;28;19927;-66
2023/05/09 17:19:44;;;;;;;;;;;;;;;;;;5109809;28;19912;-67
2023/05/09 17:22:10;;;;;;;;;;;;;;;;;;5111510;28;19908;-66
2023/05/09 17:24:49;;;;;;;;;;;;;;;;;;5111717;27;19916;-67
2023/05/09 17:27:15;;;;;;;;;;;;;;;;;;5111329;28;20348;-66
2023/05/09 17:33:53;;;;;;;;;;;;;;;;;;5111566;27;19922;-66
2023/05/09 17:37:47;;;;;;;;;;;;;;;;;;5091520;27;19916;-67
2023/05/09 17:40:13;;;;;;;;;;;;;;;;;;5090989;28;19995;-67
2023/05/09 17:42:39;;;;;;;;;;;;;;;;;;5090012;28;19909;-67
2023/05/09 17:46:37;;;;;;;;;;;;;;;;;;5152829;27;19917;-64
2023/05/09 17:49:06;;;;;;;;;;;;;;;;;;5133917;27;19916;-65
2023/05/09 17:53:29;;;;;;;;;;;;;;;;;;5111777;27;19916;-67
2023/05/09 17:58:42;;;;;;;;;;;;;;;;;;5111739;27;20265;-67
2023/05/09 18:01:08;;;;;;;;;;;;;;;;;;5111310;28;20415;-67
2023/05/09 18:03:52;;;;;;;;;;;;;;;;;;5055376;27;2175139;-66
2023/05/09 18:06:18;;;;;;;;;;;;;;;;;;5132082;28;20359;-66
2023/05/09 18:11:11;;;;;;;;;;;;;;;;;;5112488;27;19916;-67
2023/05/09 18:14:23;;;;;;;;;;;;;;;;;;5091426;27;19919;-66
2023/05/09 18:16:49;;;;;;;;;;;;;;;;;;5090923;28;20007;-64
2023/05/09 18:19:15;;;;;;;;;;;;;;;;;;5091236;28;19908;-66
2023/05/09 18:21:41;;;;;;;;;;;;;;;;;;5091299;28;19912;-66
2023/05/09 18:24:50;;;;;;;;;;;;;;;;;;5111695;27;19923;-66
2023/05/09 18:30:53;;;;;;;;;;;;;;;;;;5050755;28;19917;-66
2023/05/09 18:34:01;;;;;;;;;;;;;;;;;;5152886;27;19918;-67
2023/05/09 18:36:28;;;;;;;;;;;;;;;;;;5152389;27;19962;-67
2023/05/09 18:38:54;;;;;;;;;;;;;;;;;;5152987;27;19990;-67
2023/05/09 18:41:20;;;;;;;;;;;;;;;;;;5152973;27;19949;-67
2023/05/09 18:43:46;;;;;;;;;;;;;;;;;;5152414;27;19917;-67
2023/05/09 18:48:15;;;;;;;;;;;;;;;;;;5112088;27;19915;-67
2023/05/09 18:50:41;;;;;;;;;;;;;;;;;;5111607;28;20011;-67
2023/05/09 18:54:54;;;;;;;;;;;;;;;;;;5153169;27;20010;-66
2023/05/09 18:57:20;;;;;;;;;;;;;;;;;;5133932;27;19919;-66
2023/05/09 18:59:46;;;;;;;;;;;;;;;;;;5152725;27;19991;-66
2023/05/09 19:04:40;;;;;;;;;;;;;;;;;;5131927;27;19918;-66
2023/05/09 19:08:36;;;;;;;;;;;;;;;;;;5091597;27;19958;-65
2023/05/09 19:11:27;;;;;;;;;;;;;;;;;;5173629;27;19911;-65
2023/05/09 19:14:04;;;;;;;;;;;;;;;;;;5111871;27;19912;-66
2023/05/09 19:16:30;;;;;;;;;;;;;;;;;;5111671;28;19912;-66
2023/05/09 19:21:52;;;;;;;;;;;;;;;;;;5153039;27;20002;-66
2023/05/09 19:25:59;;;;;;;;;;;;;;;;;;5111433;27;19920;-66
2023/05/09 19:34:36;;;;;;;;;;;;;;;;;;5110125;27;19922;-67
2023/05/09 19:37:02;;;;;;;;;;;;;;;;;;5111287;28;19991;-67
2023/05/09 19:39:28;;;;;;;;;;;;;;;;;;5111103;28;20008;-67
2023/05/09 19:41:54;;;;;;;;;;;;;;;;;;5110231;28;19951;-67
2023/05/09 19:44:20;;;;;;;;;;;;;;;;;;5111569;28;20283;-67
2023/05/09 19:46:46;;;;;;;;;;;;;;;;;;5111039;28;19912;-67
2023/05/09 19:49:14;;;;;;;;;;;;;;;;;;5111567;28;19908;-67
2023/05/09 19:51:40;;;;;;;;;;;;;;;;;;5110766;28;19977;-67
2023/05/09 19:54:06;;;;;;;;;;;;;;;;;;5110681;28;20379;-67
2023/05/09 19:56:32;;;;;;;;;;;;;;;;;;5111384;28;19908;-66
2023/05/09 19:58:58;;;;;;;;;;;;;;;;;;5110019;28;19908;-68
2023/05/09 20:01:25;;;;;;;;;;;;;;;;;;5110924;28;20378;-67
2023/05/09 20:03:51;;;;;;;;;;;;;;;;;;5111195;28;19915;-67
2023/05/09 20:06:16;;;;;;;;;;;;;;;;;;5109823;28;19915;-66
2023/05/09 20:08:45;;;;;;;;;;;;;;;;;;5110813;28;20350;-67
2023/05/09 20:11:11;;;;;;;;;;;;;;;;;;5111142;28;19908;-67
2023/05/09 20:13:37;;;;;;;;;;;;;;;;;;5111045;28;19922;-67
2023/05/09 20:16:03;;;;;;;;;;;;;;;;;;5110582;28;19955;-67
2023/05/09 20:18:32;;;;;;;;;;;;;;;;;;5109702;28;19908;-67
2023/05/09 20:20:58;;;;;;;;;;;;;;;;;;5111161;28;20374;-67
2023/05/09 20:23:24;;;;;;;;;;;;;;;;;;5109204;28;19908;-67
2023/05/09 20:25:50;;;;;;;;;;;;;;;;;;5110742;28;19958;-67
2023/05/09 20:28:19;;;;;;;;;;;;;;;;;;5110978;28;19912;-67
2023/05/09 20:30:45;;;;;;;;;;;;;;;;;;5110212;28;19952;-66
2023/05/09 20:33:10;;;;;;;;;;;;;;;;;;5109064;28;20379;-67
2023/05/09 20:35:38;;;;;;;;;;;;;;;;;;5109007;28;19995;-67
2023/05/09 20:38:04;;;;;;;;;;;;;;;;;;5110599;28;19908;-67
2023/05/09 20:40:30;;;;;;;;;;;;;;;;;;5110520;28;19912;-68
2023/05/09 20:42:56;;;;;;;;;;;;;;;;;;5108817;28;20368;-67
2023/05/09 20:45:22;;;;;;;;;;;;;;;;;;5099985;28;19913;-67
2023/05/09 20:47:48;;;;;;;;;;;;;;;;;;5096865;28;19931;-67
2023/05/09 20:50:14;;;;;;;;;;;;;;;;;;5096364;28;19908;-67
2023/05/09 20:52:40;;;;;;;;;;;;;;;;;;5095404;28;19919;-67
2023/05/09 20:55:06;;;;;;;;;;;;;;;;;;5095357;28;19919;-67
2023/05/09 20:57:32;;;;;;;;;;;;;;;;;;5094973;28;19909;-67
2023/05/09 20:59:58;;;;;;;;;;;;;;;;;;5096578;28;20364;-67
2023/05/09 21:02:24;;;;;;;;;;;;;;;;;;5096622;28;19915;-67
2023/05/09 21:04:50;;;;;;;;;;;;;;;;;;5094762;28;19991;-67
2023/05/09 21:07:18;;;;;;;;;;;;;;;;;;5096439;28;19918;-67
2023/05/09 21:09:44;;;;;;;;;;;;;;;;;;5096402;28;20002;-67
2023/05/09 21:12:10;;;;;;;;;;;;;;;;;;5095887;28;19946;-67
2023/05/09 21:14:36;;;;;;;;;;;;;;;;;;5095059;28;19951;-67
2023/05/09 21:17:02;;;;;;;;;;;;;;;;;;5096252;28;19908;-67
2023/05/09 21:19:28;;;;;;;;;;;;;;;;;;5094552;28;19964;-67
2023/05/09 21:21:53;;;;;;;;;;;;;;;;;;5096200;28;19908;-66
2023/05/09 21:24:19;;;;;;;;;;;;;;;;;;5096236;28;19908;-67
2023/05/09 21:26:45;;;;;;;;;;;;;;;;;;5094339;28;20000;-67
2023/05/09 21:29:11;;;;;;;;;;;;;;;;;;5094749;28;19915;-66
2023/05/09 21:31:37;;;;;;;;;;;;;;;;;;5095927;28;19908;-66
2023/05/09 21:34:08;;;;;;;;;;;;;;;;;;5095331;28;20397;-67
2023/05/09 21:36:34;;;;;;;;;;;;;;;;;;5096154;28;19909;-67
2023/05/09 21:39:06;;;;;;;;;;;;;;;;;;5095458;28;20435;-65
2023/05/09 21:41:31;;;;;;;;;;;;;;;;;;5096363;28;20267;-67
2023/05/09 21:43:57;;;;;;;;;;;;;;;;;;5094502;28;19909;-67
2023/05/09 21:46:23;;;;;;;;;;;;;;;;;;5095293;28;19915;-67
2023/05/09 21:48:49;;;;;;;;;;;;;;;;;;5095864;28;20391;-67
2023/05/09 21:51:15;;;;;;;;;;;;;;;;;;5095573;28;20492;-67
2023/05/09 21:53:41;;;;;;;;;;;;;;;;;;5095096;28;20027;-67
2023/05/09 21:56:07;;;;;;;;;;;;;;;;;;5094510;28;19908;-67